sensor_id;sensor_type;location;lat;lon;timestamp;P1;durP1;ratioP1;P2;durP2;ratioP2
27586;SDS011;15019;49.002;8.420;2022-07-29T00:00:36;5.80;;;3.88;;
27586;SDS011;15019;49.002;8.420;2022-07-29T00:03:01;7.85;;;4.63;;
27586;SDS011;15019;49.002;8.420;2022-07-29T00:05:27;8.10;;;4.57;;
27586;SDS011;15019;49.002;8.420;2022-07-29T00:07:52;6.55;;;3.90;;
27586;SDS011;15019;49.002;8.420;2022-07-29T00:10:18;6.95;;;4.22;;
27586;SDS011;15019;49.002;8.420;2022-07-29T00:12:43;5.25;;;3.90;;
27586;SDS011;15019;49.002;8.420;2022-07-29T00:15:08;8.35;;;4.20;;
27586;SDS011;15019;49.002;8.420;2022-07-29T00:17:34;5.50;;;3.83;;
27586;SDS011;15019;49.002;8.420;2022-07-29T00:19:59;8.93;;;4.28;;
27586;SDS011;15019;49.002;8.420;2022-07-29T00:22:24;6.75;;;4.10;;
27586;SDS011;15019;49.002;8.420;2022-07-29T00:24:50;5.60;;;4.20;;
27586;SDS011;15019;49.002;8.420;2022-07-29T00:27:15;6.68;;;4.05;;
27586;SDS011;15019;49.002;8.420;2022-07-29T00:29:41;5.80;;;3.90;;
27586;SDS011;15019;49.002;8.420;2022-07-29T00:32:07;8.55;;;3.80;;
27586;SDS011;15019;49.002;8.420;2022-07-29T00:34:32;5.45;;;4.03;;
27586;SDS011;15019;49.002;8.420;2022-07-29T00:36:57;6.35;;;3.80;;
27586;SDS011;15019;49.002;8.420;2022-07-29T00:39:23;5.90;;;4.05;;
27586;SDS011;15019;49.002;8.420;2022-07-29T00:41:49;8.10;;;4.07;;
27586;SDS011;15019;49.002;8.420;2022-07-29T00:44:14;5.95;;;3.67;;
27586;SDS011;15019;49.002;8.420;2022-07-29T00:46:40;5.95;;;3.63;;
27586;SDS011;15019;49.002;8.420;2022-07-29T00:49:05;5.75;;;4.03;;
27586;SDS011;15019;49.002;8.420;2022-07-29T00:51:30;6.53;;;4.28;;
27586;SDS011;15019;49.002;8.420;2022-07-29T00:53:56;7.95;;;4.35;;
27586;SDS011;15019;49.002;8.420;2022-07-29T00:56:22;5.30;;;4.13;;
27586;SDS011;15019;49.002;8.420;2022-07-29T00:58:47;7.75;;;4.10;;
27586;SDS011;15019;49.002;8.420;2022-07-29T01:01:13;6.30;;;4.07;;
27586;SDS011;15019;49.002;8.420;2022-07-29T01:03:38;6.32;;;4.28;;
27586;SDS011;15019;49.002;8.420;2022-07-29T01:06:04;5.53;;;4.07;;
27586;SDS011;15019;49.002;8.420;2022-07-29T01:08:29;5.30;;;4.00;;
27586;SDS011;15019;49.002;8.420;2022-07-29T01:10:57;6.50;;;4.00;;
27586;SDS011;15019;49.002;8.420;2022-07-29T01:13:24;5.03;;;3.92;;
27586;SDS011;15019;49.002;8.420;2022-07-29T01:15:51;6.18;;;3.78;;
27586;SDS011;15019;49.002;8.420;2022-07-29T01:18:26;5.90;;;4.45;;
27586;SDS011;15019;49.002;8.420;2022-07-29T01:26:52;10.40;;;4.25;;
27586;SDS011;15019;49.002;8.420;2022-07-29T01:29:22;7.43;;;4.60;;
27586;SDS011;15019;49.002;8.420;2022-07-29T01:34:53;6.13;;;4.20;;
27586;SDS011;15019;49.002;8.420;2022-07-29T01:37:32;8.13;;;4.40;;
27586;SDS011;15019;49.002;8.420;2022-07-29T01:39:59;6.75;;;4.18;;
27586;SDS011;15019;49.002;8.420;2022-07-29T01:45:23;5.38;;;4.10;;
27586;SDS011;15019;49.002;8.420;2022-07-29T01:48:02;7.47;;;4.18;;
27586;SDS011;15019;49.002;8.420;2022-07-29T01:51:04;8.65;;;4.40;;
27586;SDS011;15019;49.002;8.420;2022-07-29T01:54:24;8.48;;;4.53;;
27586;SDS011;15019;49.002;8.420;2022-07-29T01:56:36;8.45;;;4.78;;
27586;SDS011;15019;49.002;8.420;2022-07-29T02:01:31;7.40;;;4.60;;
27586;SDS011;15019;49.002;8.420;2022-07-29T02:03:58;6.80;;;5.05;;
27586;SDS011;15019;49.002;8.420;2022-07-29T02:06:26;7.38;;;4.70;;
27586;SDS011;15019;49.002;8.420;2022-07-29T02:11:21;6.53;;;4.63;;
27586;SDS011;15019;49.002;8.420;2022-07-29T02:13:46;6.43;;;4.75;;
27586;SDS011;15019;49.002;8.420;2022-07-29T02:16:13;7.80;;;4.90;;
27586;SDS011;15019;49.002;8.420;2022-07-29T02:18:41;5.90;;;4.88;;
27586;SDS011;15019;49.002;8.420;2022-07-29T02:21:10;7.88;;;4.72;;
27586;SDS011;15019;49.002;8.420;2022-07-29T02:23:38;7.57;;;4.43;;
27586;SDS011;15019;49.002;8.420;2022-07-29T02:26:03;6.30;;;4.60;;
27586;SDS011;15019;49.002;8.420;2022-07-29T02:28:29;6.60;;;4.88;;
27586;SDS011;15019;49.002;8.420;2022-07-29T02:30:57;7.10;;;4.80;;
27586;SDS011;15019;49.002;8.420;2022-07-29T02:33:25;8.20;;;4.60;;
27586;SDS011;15019;49.002;8.420;2022-07-29T02:35:52;9.82;;;4.90;;
27586;SDS011;15019;49.002;8.420;2022-07-29T02:38:20;6.93;;;4.78;;
27586;SDS011;15019;49.002;8.420;2022-07-29T02:40:47;6.43;;;5.00;;
27586;SDS011;15019;49.002;8.420;2022-07-29T02:43:15;9.05;;;4.82;;
27586;SDS011;15019;49.002;8.420;2022-07-29T02:45:42;6.45;;;4.65;;
27586;SDS011;15019;49.002;8.420;2022-07-29T02:48:10;8.30;;;5.38;;
27586;SDS011;15019;49.002;8.420;2022-07-29T02:50:50;7.57;;;5.38;;
27586;SDS011;15019;49.002;8.420;2022-07-29T02:53:20;7.65;;;5.30;;
27586;SDS011;15019;49.002;8.420;2022-07-29T02:55:59;7.13;;;4.75;;
27586;SDS011;15019;49.002;8.420;2022-07-29T02:58:33;7.38;;;5.35;;
27586;SDS011;15019;49.002;8.420;2022-07-29T03:01:04;7.70;;;5.53;;
27586;SDS011;15019;49.002;8.420;2022-07-29T03:03:36;8.13;;;5.28;;
27586;SDS011;15019;49.002;8.420;2022-07-29T03:06:03;11.50;;;5.43;;
27586;SDS011;15019;49.002;8.420;2022-07-29T03:08:30;7.53;;;5.43;;
27586;SDS011;15019;49.002;8.420;2022-07-29T03:10:57;6.68;;;5.28;;
27586;SDS011;15019;49.002;8.420;2022-07-29T03:13:23;6.47;;;5.20;;
27586;SDS011;15019;49.002;8.420;2022-07-29T03:15:50;7.38;;;5.05;;
27586;SDS011;15019;49.002;8.420;2022-07-29T03:18:16;7.88;;;5.40;;
27586;SDS011;15019;49.002;8.420;2022-07-29T03:20:42;7.72;;;5.28;;
27586;SDS011;15019;49.002;8.420;2022-07-29T03:23:08;9.02;;;5.68;;
27586;SDS011;15019;49.002;8.420;2022-07-29T03:25:34;8.45;;;5.55;;
27586;SDS011;15019;49.002;8.420;2022-07-29T03:27:59;7.18;;;5.25;;
27586;SDS011;15019;49.002;8.420;2022-07-29T03:30:25;5.32;;;4.82;;
27586;SDS011;15019;49.002;8.420;2022-07-29T03:32:50;8.23;;;5.70;;
27586;SDS011;15019;49.002;8.420;2022-07-29T03:35:17;6.90;;;5.40;;
27586;SDS011;15019;49.002;8.420;2022-07-29T03:37:42;9.65;;;5.35;;
27586;SDS011;15019;49.002;8.420;2022-07-29T03:40:08;7.88;;;5.82;;
27586;SDS011;15019;49.002;8.420;2022-07-29T03:42:37;8.60;;;5.38;;
27586;SDS011;15019;49.002;8.420;2022-07-29T03:45:06;6.82;;;5.10;;
27586;SDS011;15019;49.002;8.420;2022-07-29T03:47:34;8.75;;;5.28;;
27586;SDS011;15019;49.002;8.420;2022-07-29T03:50:05;9.63;;;5.72;;
27586;SDS011;15019;49.002;8.420;2022-07-29T03:52:33;7.97;;;5.40;;
27586;SDS011;15019;49.002;8.420;2022-07-29T03:55:00;7.35;;;5.32;;
27586;SDS011;15019;49.002;8.420;2022-07-29T03:57:27;8.95;;;5.60;;
27586;SDS011;15019;49.002;8.420;2022-07-29T03:59:55;7.57;;;5.70;;
27586;SDS011;15019;49.002;8.420;2022-07-29T04:02:21;9.98;;;5.90;;
27586;SDS011;15019;49.002;8.420;2022-07-29T04:04:47;7.60;;;5.80;;
27586;SDS011;15019;49.002;8.420;2022-07-29T04:07:13;9.13;;;6.47;;
27586;SDS011;15019;49.002;8.420;2022-07-29T04:09:39;12.25;;;6.32;;
27586;SDS011;15019;49.002;8.420;2022-07-29T04:12:05;9.27;;;5.68;;
27586;SDS011;15019;49.002;8.420;2022-07-29T04:14:31;6.78;;;5.22;;
27586;SDS011;15019;49.002;8.420;2022-07-29T04:16:57;8.73;;;5.93;;
27586;SDS011;15019;49.002;8.420;2022-07-29T04:19:23;9.10;;;5.78;;
27586;SDS011;15019;49.002;8.420;2022-07-29T04:21:48;9.30;;;5.90;;
27586;SDS011;15019;49.002;8.420;2022-07-29T04:24:13;13.13;;;5.70;;
27586;SDS011;15019;49.002;8.420;2022-07-29T04:26:39;8.48;;;5.75;;
27586;SDS011;15019;49.002;8.420;2022-07-29T04:29:04;8.55;;;5.63;;
27586;SDS011;15019;49.002;8.420;2022-07-29T04:31:29;10.38;;;6.32;;
27586;SDS011;15019;49.002;8.420;2022-07-29T04:33:55;8.73;;;6.00;;
27586;SDS011;15019;49.002;8.420;2022-07-29T04:36:20;9.52;;;6.13;;
27586;SDS011;15019;49.002;8.420;2022-07-29T04:38:45;9.98;;;5.57;;
27586;SDS011;15019;49.002;8.420;2022-07-29T04:41:11;8.43;;;6.18;;
27586;SDS011;15019;49.002;8.420;2022-07-29T04:43:36;9.57;;;6.35;;
27586;SDS011;15019;49.002;8.420;2022-07-29T04:46:02;10.10;;;6.38;;
27586;SDS011;15019;49.002;8.420;2022-07-29T04:48:28;9.55;;;6.13;;
27586;SDS011;15019;49.002;8.420;2022-07-29T04:50:53;12.00;;;6.22;;
27586;SDS011;15019;49.002;8.420;2022-07-29T04:53:19;9.32;;;6.70;;
27586;SDS011;15019;49.002;8.420;2022-07-29T04:55:44;10.88;;;6.80;;
27586;SDS011;15019;49.002;8.420;2022-07-29T04:58:10;9.85;;;6.63;;
27586;SDS011;15019;49.002;8.420;2022-07-29T05:00:35;8.95;;;6.93;;
27586;SDS011;15019;49.002;8.420;2022-07-29T05:03:00;9.57;;;7.22;;
27586;SDS011;15019;49.002;8.420;2022-07-29T05:05:26;10.45;;;6.90;;
27586;SDS011;15019;49.002;8.420;2022-07-29T05:07:51;10.10;;;6.85;;
27586;SDS011;15019;49.002;8.420;2022-07-29T05:10:16;8.95;;;6.95;;
27586;SDS011;15019;49.002;8.420;2022-07-29T05:12:42;13.68;;;7.22;;
27586;SDS011;15019;49.002;8.420;2022-07-29T05:15:07;11.10;;;7.15;;
27586;SDS011;15019;49.002;8.420;2022-07-29T05:17:33;16.25;;;7.20;;
27586;SDS011;15019;49.002;8.420;2022-07-29T05:19:58;26.35;;;7.82;;
27586;SDS011;15019;49.002;8.420;2022-07-29T05:22:24;27.30;;;7.70;;
27586;SDS011;15019;49.002;8.420;2022-07-29T05:24:49;25.08;;;8.23;;
27586;SDS011;15019;49.002;8.420;2022-07-29T05:27:14;26.52;;;8.15;;
27586;SDS011;15019;49.002;8.420;2022-07-29T05:29:40;18.27;;;7.18;;
27586;SDS011;15019;49.002;8.420;2022-07-29T05:32:05;16.13;;;6.88;;
27586;SDS011;15019;49.002;8.420;2022-07-29T05:34:31;14.40;;;6.82;;
27586;SDS011;15019;49.002;8.420;2022-07-29T05:36:56;9.65;;;6.75;;
27586;SDS011;15019;49.002;8.420;2022-07-29T05:39:22;22.15;;;7.32;;
27586;SDS011;15019;49.002;8.420;2022-07-29T05:41:48;18.83;;;6.90;;
27586;SDS011;15019;49.002;8.420;2022-07-29T05:44:13;20.17;;;6.88;;
27586;SDS011;15019;49.002;8.420;2022-07-29T05:46:39;20.80;;;7.03;;
27586;SDS011;15019;49.002;8.420;2022-07-29T05:49:04;10.55;;;6.60;;
27586;SDS011;15019;49.002;8.420;2022-07-29T05:51:29;16.42;;;6.80;;
27586;SDS011;15019;49.002;8.420;2022-07-29T05:53:55;14.57;;;6.28;;
27586;SDS011;15019;49.002;8.420;2022-07-29T05:56:20;10.05;;;6.47;;
27586;SDS011;15019;49.002;8.420;2022-07-29T05:58:45;13.10;;;7.00;;
27586;SDS011;15019;49.002;8.420;2022-07-29T06:01:11;10.25;;;6.45;;
27586;SDS011;15019;49.002;8.420;2022-07-29T06:03:36;10.68;;;6.32;;
27586;SDS011;15019;49.002;8.420;2022-07-29T06:06:01;10.32;;;6.15;;
27586;SDS011;15019;49.002;8.420;2022-07-29T06:08:27;11.07;;;6.75;;
27586;SDS011;15019;49.002;8.420;2022-07-29T06:10:52;10.27;;;6.72;;
27586;SDS011;15019;49.002;8.420;2022-07-29T06:13:17;15.30;;;6.22;;
27586;SDS011;15019;49.002;8.420;2022-07-29T06:15:42;13.77;;;6.28;;
27586;SDS011;15019;49.002;8.420;2022-07-29T06:18:08;11.85;;;5.88;;
27586;SDS011;15019;49.002;8.420;2022-07-29T06:20:33;10.90;;;6.00;;
27586;SDS011;15019;49.002;8.420;2022-07-29T06:22:59;9.77;;;6.30;;
27586;SDS011;15019;49.002;8.420;2022-07-29T06:25:25;10.02;;;5.65;;
27586;SDS011;15019;49.002;8.420;2022-07-29T06:27:50;13.85;;;5.63;;
27586;SDS011;15019;49.002;8.420;2022-07-29T06:30:16;11.98;;;6.32;;
27586;SDS011;15019;49.002;8.420;2022-07-29T06:32:41;15.65;;;5.60;;
27586;SDS011;15019;49.002;8.420;2022-07-29T06:35:06;15.30;;;5.90;;
27586;SDS011;15019;49.002;8.420;2022-07-29T06:37:32;10.65;;;5.57;;
27586;SDS011;15019;49.002;8.420;2022-07-29T06:39:57;10.07;;;5.70;;
27586;SDS011;15019;49.002;8.420;2022-07-29T06:42:22;13.18;;;5.72;;
27586;SDS011;15019;49.002;8.420;2022-07-29T06:44:48;12.32;;;5.93;;
27586;SDS011;15019;49.002;8.420;2022-07-29T06:47:13;10.00;;;5.40;;
27586;SDS011;15019;49.002;8.420;2022-07-29T06:49:38;12.20;;;5.75;;
27586;SDS011;15019;49.002;8.420;2022-07-29T06:52:04;16.63;;;5.53;;
27586;SDS011;15019;49.002;8.420;2022-07-29T06:54:29;16.25;;;5.38;;
27586;SDS011;15019;49.002;8.420;2022-07-29T06:56:55;10.00;;;5.00;;
27586;SDS011;15019;49.002;8.420;2022-07-29T06:59:20;9.60;;;5.30;;
27586;SDS011;15019;49.002;8.420;2022-07-29T07:01:45;9.73;;;5.07;;
27586;SDS011;15019;49.002;8.420;2022-07-29T07:04:11;10.88;;;4.97;;
27586;SDS011;15019;49.002;8.420;2022-07-29T07:06:36;8.55;;;5.00;;
27586;SDS011;15019;49.002;8.420;2022-07-29T07:09:02;7.40;;;4.95;;
27586;SDS011;15019;49.002;8.420;2022-07-29T07:11:27;9.93;;;5.18;;
27586;SDS011;15019;49.002;8.420;2022-07-29T07:13:53;7.28;;;4.90;;
27586;SDS011;15019;49.002;8.420;2022-07-29T07:16:18;28.42;;;5.43;;
27586;SDS011;15019;49.002;8.420;2022-07-29T07:18:44;8.85;;;4.75;;
27586;SDS011;15019;49.002;8.420;2022-07-29T07:21:09;7.82;;;4.80;;
27586;SDS011;15019;49.002;8.420;2022-07-29T07:23:34;9.45;;;5.13;;
27586;SDS011;15019;49.002;8.420;2022-07-29T07:26:00;10.38;;;5.00;;
27586;SDS011;15019;49.002;8.420;2022-07-29T07:28:25;7.20;;;4.43;;
27586;SDS011;15019;49.002;8.420;2022-07-29T07:30:50;8.75;;;5.25;;
27586;SDS011;15019;49.002;8.420;2022-07-29T07:33:16;11.30;;;4.63;;
27586;SDS011;15019;49.002;8.420;2022-07-29T07:35:41;15.63;;;4.68;;
27586;SDS011;15019;49.002;8.420;2022-07-29T07:38:07;8.63;;;4.30;;
27586;SDS011;15019;49.002;8.420;2022-07-29T07:40:32;13.15;;;4.35;;
27586;SDS011;15019;49.002;8.420;2022-07-29T07:42:57;8.43;;;4.00;;
27586;SDS011;15019;49.002;8.420;2022-07-29T07:45:23;8.95;;;4.30;;
27586;SDS011;15019;49.002;8.420;2022-07-29T07:47:49;10.30;;;4.28;;
27586;SDS011;15019;49.002;8.420;2022-07-29T07:50:18;7.05;;;4.53;;
27586;SDS011;15019;49.002;8.420;2022-07-29T07:52:53;8.25;;;4.50;;
27586;SDS011;15019;49.002;8.420;2022-07-29T07:55:20;7.88;;;4.40;;
27586;SDS011;15019;49.002;8.420;2022-07-29T07:57:46;8.60;;;4.38;;
27586;SDS011;15019;49.002;8.420;2022-07-29T08:00:12;10.52;;;4.03;;
27586;SDS011;15019;49.002;8.420;2022-07-29T08:02:39;6.30;;;3.80;;
27586;SDS011;15019;49.002;8.420;2022-07-29T08:05:05;8.38;;;4.22;;
27586;SDS011;15019;49.002;8.420;2022-07-29T08:07:31;7.45;;;4.10;;
27586;SDS011;15019;49.002;8.420;2022-07-29T08:09:57;8.80;;;4.20;;
27586;SDS011;15019;49.002;8.420;2022-07-29T08:12:22;11.23;;;3.92;;
27586;SDS011;15019;49.002;8.420;2022-07-29T08:14:47;8.75;;;3.90;;
27586;SDS011;15019;49.002;8.420;2022-07-29T08:17:13;9.07;;;3.75;;
27586;SDS011;15019;49.002;8.420;2022-07-29T08:19:38;10.18;;;3.88;;
27586;SDS011;15019;49.002;8.420;2022-07-29T08:22:03;9.40;;;3.90;;
27586;SDS011;15019;49.002;8.420;2022-07-29T08:24:29;6.82;;;3.90;;
27586;SDS011;15019;49.002;8.420;2022-07-29T08:26:54;11.40;;;3.80;;
27586;SDS011;15019;49.002;8.420;2022-07-29T08:29:19;11.35;;;4.53;;
27586;SDS011;15019;49.002;8.420;2022-07-29T08:31:45;7.15;;;4.50;;
27586;SDS011;15019;49.002;8.420;2022-07-29T08:34:10;11.30;;;3.92;;
27586;SDS011;15019;49.002;8.420;2022-07-29T08:36:35;12.20;;;3.47;;
27586;SDS011;15019;49.002;8.420;2022-07-29T08:39:01;10.10;;;3.63;;
27586;SDS011;15019;49.002;8.420;2022-07-29T08:41:27;8.57;;;3.40;;
27586;SDS011;15019;49.002;8.420;2022-07-29T08:43:52;9.07;;;3.53;;
27586;SDS011;15019;49.002;8.420;2022-07-29T08:46:19;7.32;;;3.40;;
27586;SDS011;15019;49.002;8.420;2022-07-29T08:48:47;7.90;;;3.13;;
27586;SDS011;15019;49.002;8.420;2022-07-29T08:51:17;6.70;;;2.92;;
27586;SDS011;15019;49.002;8.420;2022-07-29T08:53:44;8.55;;;3.42;;
27586;SDS011;15019;49.002;8.420;2022-07-29T08:56:12;10.10;;;3.17;;
27586;SDS011;15019;49.002;8.420;2022-07-29T08:58:38;10.17;;;3.40;;
27586;SDS011;15019;49.002;8.420;2022-07-29T09:01:04;7.55;;;3.00;;
27586;SDS011;15019;49.002;8.420;2022-07-29T09:03:31;11.33;;;2.90;;
27586;SDS011;15019;49.002;8.420;2022-07-29T09:05:59;6.78;;;3.08;;
27586;SDS011;15019;49.002;8.420;2022-07-29T09:08:24;6.32;;;2.80;;
27586;SDS011;15019;49.002;8.420;2022-07-29T09:10:50;9.27;;;3.00;;
27586;SDS011;15019;49.002;8.420;2022-07-29T09:13:15;9.65;;;3.25;;
27586;SDS011;15019;49.002;8.420;2022-07-29T09:15:40;7.80;;;2.75;;
27586;SDS011;15019;49.002;8.420;2022-07-29T09:18:06;12.07;;;2.95;;
27586;SDS011;15019;49.002;8.420;2022-07-29T09:20:31;4.68;;;2.70;;
27586;SDS011;15019;49.002;8.420;2022-07-29T09:22:56;5.78;;;3.10;;
27586;SDS011;15019;49.002;8.420;2022-07-29T09:25:32;12.05;;;2.80;;
27586;SDS011;15019;49.002;8.420;2022-07-29T09:28:09;7.90;;;2.95;;
27586;SDS011;15019;49.002;8.420;2022-07-29T09:30:39;5.97;;;2.60;;
27586;SDS011;15019;49.002;8.420;2022-07-29T09:33:20;12.68;;;2.97;;
27586;SDS011;15019;49.002;8.420;2022-07-29T09:35:58;7.85;;;3.00;;
27586;SDS011;15019;49.002;8.420;2022-07-29T09:40:59;9.43;;;2.80;;
27586;SDS011;15019;49.002;8.420;2022-07-29T09:43:26;8.15;;;3.00;;
27586;SDS011;15019;49.002;8.420;2022-07-29T09:45:51;10.43;;;3.20;;
27586;SDS011;15019;49.002;8.420;2022-07-29T09:48:24;5.85;;;2.90;;
27586;SDS011;15019;49.002;8.420;2022-07-29T09:50:50;8.68;;;3.30;;
27586;SDS011;15019;49.002;8.420;2022-07-29T09:56:00;6.68;;;3.10;;
27586;SDS011;15019;49.002;8.420;2022-07-29T09:58:26;8.82;;;3.20;;
27586;SDS011;15019;49.002;8.420;2022-07-29T10:00:52;6.38;;;2.80;;
27586;SDS011;15019;49.002;8.420;2022-07-29T10:03:18;5.80;;;2.80;;
27586;SDS011;15019;49.002;8.420;2022-07-29T10:05:44;8.80;;;3.00;;
27586;SDS011;15019;49.002;8.420;2022-07-29T10:08:11;8.27;;;2.90;;
27586;SDS011;15019;49.002;8.420;2022-07-29T10:10:37;5.38;;;2.80;;
27586;SDS011;15019;49.002;8.420;2022-07-29T10:13:05;6.72;;;2.90;;
27586;SDS011;15019;49.002;8.420;2022-07-29T10:15:33;6.53;;;2.83;;
27586;SDS011;15019;49.002;8.420;2022-07-29T10:17:59;6.03;;;2.80;;
27586;SDS011;15019;49.002;8.420;2022-07-29T10:20:25;5.67;;;2.80;;
27586;SDS011;15019;49.002;8.420;2022-07-29T10:22:52;9.45;;;2.95;;
27586;SDS011;15019;49.002;8.420;2022-07-29T10:25:19;13.07;;;2.70;;
27586;SDS011;15019;49.002;8.420;2022-07-29T10:27:47;8.80;;;2.90;;
27586;SDS011;15019;49.002;8.420;2022-07-29T10:30:14;6.10;;;2.92;;
27586;SDS011;15019;49.002;8.420;2022-07-29T10:32:54;7.05;;;2.85;;
27586;SDS011;15019;49.002;8.420;2022-07-29T10:41:22;7.53;;;2.80;;
27586;SDS011;15019;49.002;8.420;2022-07-29T10:44:05;7.53;;;3.10;;
27586;SDS011;15019;49.002;8.420;2022-07-29T10:46:36;6.95;;;2.65;;
27586;SDS011;15019;49.002;8.420;2022-07-29T10:59:37;6.10;;;2.47;;
27586;SDS011;15019;49.002;8.420;2022-07-29T11:02:03;7.03;;;2.75;;
27586;SDS011;15019;49.002;8.420;2022-07-29T11:05:07;4.78;;;2.65;;
27586;SDS011;15019;49.002;8.420;2022-07-29T11:07:36;7.63;;;2.58;;
27586;SDS011;15019;49.002;8.420;2022-07-29T11:15:03;8.83;;;2.20;;
27586;SDS011;15019;49.002;8.420;2022-07-29T11:23:00;8.63;;;2.33;;
27586;SDS011;15019;49.002;8.420;2022-07-29T11:25:25;5.35;;;2.70;;
27586;SDS011;15019;49.002;8.420;2022-07-29T11:27:52;5.25;;;2.60;;
27586;SDS011;15019;49.002;8.420;2022-07-29T11:30:19;3.83;;;2.33;;
27586;SDS011;15019;49.002;8.420;2022-07-29T11:32:44;8.48;;;2.80;;
27586;SDS011;15019;49.002;8.420;2022-07-29T11:37:35;4.60;;;2.40;;
27586;SDS011;15019;49.002;8.420;2022-07-29T11:47:29;5.80;;;2.35;;
27586;SDS011;15019;49.002;8.420;2022-07-29T11:49:57;6.10;;;2.63;;
27586;SDS011;15019;49.002;8.420;2022-07-29T11:52:32;7.75;;;2.70;;
27586;SDS011;15019;49.002;8.420;2022-07-29T11:55:08;7.70;;;2.92;;
27586;SDS011;15019;49.002;8.420;2022-07-29T11:57:35;5.82;;;2.60;;
27586;SDS011;15019;49.002;8.420;2022-07-29T12:00:03;8.30;;;2.58;;
27586;SDS011;15019;49.002;8.420;2022-07-29T12:02:40;4.70;;;2.58;;
27586;SDS011;15019;49.002;8.420;2022-07-29T12:05:06;5.60;;;2.45;;
27586;SDS011;15019;49.002;8.420;2022-07-29T12:07:34;6.88;;;2.67;;
27586;SDS011;15019;49.002;8.420;2022-07-29T12:09:59;5.85;;;2.60;;
27586;SDS011;15019;49.002;8.420;2022-07-29T12:12:25;4.85;;;2.38;;
27586;SDS011;15019;49.002;8.420;2022-07-29T12:14:51;5.22;;;2.25;;
27586;SDS011;15019;49.002;8.420;2022-07-29T12:19:53;6.03;;;2.40;;
27586;SDS011;15019;49.002;8.420;2022-07-29T12:22:31;7.13;;;2.53;;
27586;SDS011;15019;49.002;8.420;2022-07-29T12:25:11;7.35;;;2.55;;
27586;SDS011;15019;49.002;8.420;2022-07-29T12:27:38;6.93;;;2.35;;
27586;SDS011;15019;49.002;8.420;2022-07-29T12:30:04;6.90;;;2.35;;
27586;SDS011;15019;49.002;8.420;2022-07-29T12:32:38;6.25;;;2.25;;
27586;SDS011;15019;49.002;8.420;2022-07-29T12:35:07;8.35;;;2.30;;
27586;SDS011;15019;49.002;8.420;2022-07-29T12:37:34;10.13;;;2.30;;
27586;SDS011;15019;49.002;8.420;2022-07-29T12:40:01;6.47;;;2.30;;
27586;SDS011;15019;49.002;8.420;2022-07-29T12:42:28;4.72;;;2.38;;
27586;SDS011;15019;49.002;8.420;2022-07-29T12:44:53;5.57;;;2.10;;
27586;SDS011;15019;49.002;8.420;2022-07-29T12:47:19;4.65;;;2.30;;
27586;SDS011;15019;49.002;8.420;2022-07-29T12:49:45;5.65;;;2.33;;
27586;SDS011;15019;49.002;8.420;2022-07-29T12:52:30;6.50;;;1.95;;
27586;SDS011;15019;49.002;8.420;2022-07-29T12:54:58;4.85;;;2.00;;
27586;SDS011;15019;49.002;8.420;2022-07-29T12:57:23;7.95;;;2.10;;
27586;SDS011;15019;49.002;8.420;2022-07-29T13:00:08;8.75;;;2.35;;
27586;SDS011;15019;49.002;8.420;2022-07-29T13:05:03;6.68;;;2.30;;
27586;SDS011;15019;49.002;8.420;2022-07-29T13:07:30;4.97;;;2.20;;
27586;SDS011;15019;49.002;8.420;2022-07-29T13:15:30;6.95;;;2.05;;
27586;SDS011;15019;49.002;8.420;2022-07-29T13:17:56;7.85;;;2.10;;
27586;SDS011;15019;49.002;8.420;2022-07-29T13:20:23;6.65;;;1.90;;
27586;SDS011;15019;49.002;8.420;2022-07-29T13:22:50;6.25;;;2.13;;
27586;SDS011;15019;49.002;8.420;2022-07-29T13:25:23;6.05;;;2.10;;
27586;SDS011;15019;49.002;8.420;2022-07-29T13:27:53;5.25;;;2.00;;
27586;SDS011;15019;49.002;8.420;2022-07-29T13:30:19;8.95;;;2.05;;
27586;SDS011;15019;49.002;8.420;2022-07-29T13:32:44;5.68;;;2.13;;
27586;SDS011;15019;49.002;8.420;2022-07-29T13:35:10;11.43;;;2.28;;
27586;SDS011;15019;49.002;8.420;2022-07-29T13:37:35;5.00;;;2.00;;
27586;SDS011;15019;49.002;8.420;2022-07-29T13:40:02;14.00;;;2.08;;
27586;SDS011;15019;49.002;8.420;2022-07-29T13:42:28;5.23;;;1.87;;
27586;SDS011;15019;49.002;8.420;2022-07-29T13:44:53;9.57;;;2.00;;
27586;SDS011;15019;49.002;8.420;2022-07-29T13:47:19;8.68;;;1.98;;
27586;SDS011;15019;49.002;8.420;2022-07-29T13:49:45;5.55;;;1.83;;
27586;SDS011;15019;49.002;8.420;2022-07-29T13:52:11;5.38;;;1.88;;
27586;SDS011;15019;49.002;8.420;2022-07-29T13:54:36;12.48;;;1.83;;
27586;SDS011;15019;49.002;8.420;2022-07-29T13:57:02;6.20;;;1.95;;
27586;SDS011;15019;49.002;8.420;2022-07-29T13:59:27;6.63;;;1.90;;
27586;SDS011;15019;49.002;8.420;2022-07-29T14:01:52;5.30;;;1.80;;
27586;SDS011;15019;49.002;8.420;2022-07-29T14:04:18;5.40;;;1.90;;
27586;SDS011;15019;49.002;8.420;2022-07-29T14:06:43;5.35;;;1.92;;
27586;SDS011;15019;49.002;8.420;2022-07-29T14:09:08;5.07;;;2.00;;
27586;SDS011;15019;49.002;8.420;2022-07-29T14:11:34;3.75;;;1.90;;
27586;SDS011;15019;49.002;8.420;2022-07-29T14:14:00;6.40;;;1.63;;
27586;SDS011;15019;49.002;8.420;2022-07-29T14:16:25;11.77;;;2.30;;
27586;SDS011;15019;49.002;8.420;2022-07-29T14:18:50;8.32;;;1.85;;
27586;SDS011;15019;49.002;8.420;2022-07-29T14:21:16;5.90;;;2.05;;
27586;SDS011;15019;49.002;8.420;2022-07-29T14:23:41;4.10;;;1.85;;
27586;SDS011;15019;49.002;8.420;2022-07-29T14:26:06;8.65;;;2.10;;
27586;SDS011;15019;49.002;8.420;2022-07-29T14:28:32;6.68;;;1.98;;
27586;SDS011;15019;49.002;8.420;2022-07-29T14:30:57;4.25;;;1.77;;
27586;SDS011;15019;49.002;8.420;2022-07-29T14:33:22;7.82;;;1.80;;
27586;SDS011;15019;49.002;8.420;2022-07-29T14:35:48;4.90;;;2.10;;
27586;SDS011;15019;49.002;8.420;2022-07-29T14:38:13;5.47;;;2.00;;
27586;SDS011;15019;49.002;8.420;2022-07-29T14:40:38;4.53;;;1.80;;
27586;SDS011;15019;49.002;8.420;2022-07-29T14:43:04;5.50;;;1.80;;
27586;SDS011;15019;49.002;8.420;2022-07-29T14:45:29;3.92;;;1.83;;
27586;SDS011;15019;49.002;8.420;2022-07-29T14:47:54;8.05;;;2.10;;
27586;SDS011;15019;49.002;8.420;2022-07-29T14:50:20;4.32;;;1.70;;
27586;SDS011;15019;49.002;8.420;2022-07-29T14:52:45;5.97;;;2.00;;
27586;SDS011;15019;49.002;8.420;2022-07-29T14:55:11;10.10;;;1.98;;
27586;SDS011;15019;49.002;8.420;2022-07-29T14:57:36;8.75;;;3.60;;
27586;SDS011;15019;49.002;8.420;2022-07-29T15:00:03;4.97;;;2.10;;
27586;SDS011;15019;49.002;8.420;2022-07-29T15:02:29;7.10;;;1.80;;
27586;SDS011;15019;49.002;8.420;2022-07-29T15:04:55;3.55;;;1.70;;
27586;SDS011;15019;49.002;8.420;2022-07-29T15:07:20;5.53;;;1.77;;
27586;SDS011;15019;49.002;8.420;2022-07-29T15:09:46;5.47;;;2.20;;
27586;SDS011;15019;49.002;8.420;2022-07-29T15:12:11;4.72;;;1.90;;
27586;SDS011;15019;49.002;8.420;2022-07-29T15:14:38;8.40;;;2.42;;
27586;SDS011;15019;49.002;8.420;2022-07-29T15:17:03;5.15;;;2.08;;
27586;SDS011;15019;49.002;8.420;2022-07-29T15:19:28;6.78;;;2.10;;
27586;SDS011;15019;49.002;8.420;2022-07-29T15:21:54;5.05;;;1.83;;
27586;SDS011;15019;49.002;8.420;2022-07-29T15:24:19;3.38;;;1.70;;
27586;SDS011;15019;49.002;8.420;2022-07-29T15:26:45;3.95;;;1.77;;
27586;SDS011;15019;49.002;8.420;2022-07-29T15:29:11;3.37;;;1.73;;
27586;SDS011;15019;49.002;8.420;2022-07-29T15:31:37;10.13;;;1.90;;
27586;SDS011;15019;49.002;8.420;2022-07-29T15:34:02;5.38;;;1.90;;
27586;SDS011;15019;49.002;8.420;2022-07-29T15:36:27;5.28;;;1.88;;
27586;SDS011;15019;49.002;8.420;2022-07-29T15:38:53;5.18;;;1.63;;
27586;SDS011;15019;49.002;8.420;2022-07-29T15:41:19;4.68;;;1.83;;
27586;SDS011;15019;49.002;8.420;2022-07-29T15:43:45;8.73;;;1.90;;
27586;SDS011;15019;49.002;8.420;2022-07-29T15:46:14;6.10;;;1.77;;
27586;SDS011;15019;49.002;8.420;2022-07-29T15:48:40;5.90;;;1.88;;
27586;SDS011;15019;49.002;8.420;2022-07-29T15:51:06;4.13;;;1.45;;
27586;SDS011;15019;49.002;8.420;2022-07-29T15:53:31;6.45;;;1.73;;